KPPA/PPA METAR and TAF weather

Enter ICAO airport designator
Station Type Date Time Source
KPPA METAR 2020/12/05 05:55 UTC NOAA

KPPA 050555Z AUTO 28006KT 10SM CLR 02/M04 A3026 RMK AO2 T00221037 10065 20020 401161056


Station Type Date Time Source
KPPA Decoded METAR 2020/12/05 05:55 UTC NOAA

Pampa, Perry Lefors Field Airport, TX, United States (KPPA) 35-36-46N 100-59-46W
Dec 05, 2020 - 12:55 AM EST / 2020.12.05 0555 UTC
Wind: from the W (280 degrees) at 7 MPH (6 KT):0
Visibility: 10 mile(s):0
Sky conditions: clear
Temperature: 36.0 F (2.2 C)
Dew Point: 25.3 F (-3.7 C)
Relative Humidity: 64%
Pressure (altimeter): 30.26 in. Hg (1024 hPa)
ob: KPPA 050555Z AUTO 28006KT 10SM CLR 02/M04 A3026 RMK AO2 T00221037 10065 20020 401161056
cycle: 6

Station Type Date Time Source
KPPA TAF UTC NOAA

Error!

Example: see airport list